Alma, West Virginia
Current Conditions -  °F | °C
As of 9:53 AM on Sunday 21 Dec 2014 (Local Time) from KPKB Reporting Station
Broken Clouds Broken Clouds  
Wind Chill: 33°   Ceiling: 4200
Heat Index: 33°   Visibility: 10mi
Dew Point: 24°   Wind: 0mph
Humidity: 70%   Direction: NA
Pressure: 30.36"   Gusts: NA
Location:  39.43°N, 80.84°W
Report Text: KPKB 211453Z 00000KT 10SM BKN042 01/M04 A3036 RMK AO2 SLP287 T00061044 53003
Loading
Personal Weather Stations






























Interactive Weather Map New forecast layout! Learn more

10-Day Weather Forecast

Advertisements
Track Severe Weather on mobile